Time;durP1;ratioP1;P1;durP2;ratioP2;P2;SDS_P1;SDS_P2;PMS_P1;PMS_P2;Temp;Humidity;BMP_temperature;BMP_pressure;BME280_temperature;BME280_humidity;BME280_pressure;Samples;Min_cycle;Max_cycle;Signal;HPM_P1;HPM_P2
2022/12/24 00:00:11;;;;;;;16.25;1.92;;;;;;;;;;6068915;23;20018;-60
2022/12/24 00:02:39;;;;;;;20.80;2.00;;;;;;;;;;6062540;23;20014;-60
2022/12/24 00:05:16;;;;;;;17.13;1.73;;;;;;;;;;6068695;23;20346;-60
2022/12/24 00:07:44;;;;;;;23.50;3.20;;;;;;;;;;6075836;23;20054;-57
2022/12/24 00:10:12;;;;;;;16.25;1.60;;;;;;;;;;6068133;23;20018;-60
2022/12/24 00:12:39;;;;;;;15.93;1.50;;;;;;;;;;6069460;23;20486;-60
2022/12/24 00:15:08;;;;;;;15.55;1.40;;;;;;;;;;6072398;23;20085;-59
2022/12/24 00:17:37;;;;;;;19.00;2.03;;;;;;;;;;6066217;23;20021;-60
2022/12/24 00:20:05;;;;;;;15.20;1.80;;;;;;;;;;6073882;23;20405;-59
2022/12/24 00:22:32;;;;;;;16.15;1.83;;;;;;;;;;6061701;23;20038;-60
2022/12/24 00:25:03;;;;;;;18.13;1.80;;;;;;;;;;6066835;23;20023;-60
2022/12/24 00:27:31;;;;;;;13.30;1.58;;;;;;;;;;6068543;23;20077;-59
2022/12/24 00:29:59;;;;;;;16.50;2.20;;;;;;;;;;6056943;23;20045;-60
2022/12/24 00:32:26;;;;;;;15.07;1.43;;;;;;;;;;6069693;23;20105;-59
2022/12/24 00:34:55;;;;;;;16.80;1.67;;;;;;;;;;6062623;23;20046;-60
2022/12/24 00:37:23;;;;;;;19.65;2.15;;;;;;;;;;6073684;23;20101;-60
2022/12/24 00:39:50;;;;;;;17.40;1.77;;;;;;;;;;6037243;23;20666;-60
2022/12/24 00:42:18;;;;;;;16.50;1.73;;;;;;;;;;6069682;23;20021;-60
2022/12/24 00:44:46;;;;;;;22.93;1.97;;;;;;;;;;6066381;23;20367;-60
2022/12/24 00:47:14;;;;;;;11.50;2.03;;;;;;;;;;6070971;23;20382;-60
2022/12/24 00:49:41;;;;;;;14.48;1.55;;;;;;;;;;6061960;23;20018;-60
2022/12/24 00:52:10;;;;;;;21.08;2.13;;;;;;;;;;6073103;23;20046;-60
2022/12/24 00:54:38;;;;;;;17.63;1.98;;;;;;;;;;6062221;23;20049;-60
2022/12/24 00:57:06;;;;;;;14.07;2.03;;;;;;;;;;6070581;23;20446;-59
2022/12/24 00:59:36;;;;;;;15.23;1.63;;;;;;;;;;6068576;23;20018;-60
2022/12/24 01:02:03;;;;;;;14.93;1.67;;;;;;;;;;6063551;23;20175;-60
2022/12/24 01:07:18;;;;;;;17.33;2.00;;;;;;;;;;6062021;23;20046;-60
2022/12/24 01:09:45;;;;;;;15.17;1.50;;;;;;;;;;6072629;23;20026;-59
2022/12/24 01:12:15;;;;;;;15.25;1.63;;;;;;;;;;6070618;23;20349;-60
2022/12/24 01:14:43;;;;;;;16.27;1.95;;;;;;;;;;6041614;23;20030;-60
2022/12/24 01:17:11;;;;;;;15.55;1.42;;;;;;;;;;6047655;23;20026;-60
2022/12/24 01:19:38;;;;;;;12.00;1.23;;;;;;;;;;6063146;23;20018;-60
2022/12/24 01:22:06;;;;;;;11.83;1.37;;;;;;;;;;6069294;23;20023;-59
2022/12/24 01:24:35;;;;;;;17.73;1.50;;;;;;;;;;6062289;23;20421;-60
2022/12/24 01:27:02;;;;;;;13.77;1.45;;;;;;;;;;6070534;23;20388;-60
2022/12/24 01:29:33;;;;;;;9.55;1.02;;;;;;;;;;6060729;23;20022;-60
2022/12/24 01:32:01;;;;;;;10.60;1.10;;;;;;;;;;6069575;23;20026;-60
2022/12/24 01:34:29;;;;;;;17.47;1.80;;;;;;;;;;6033265;23;20045;-60
2022/12/24 01:36:56;;;;;;;19.42;2.38;;;;;;;;;;6073485;23;20024;-60
2022/12/24 01:39:24;;;;;;;12.82;1.00;;;;;;;;;;6060882;23;20077;-60
2022/12/24 01:44:40;;;;;;;15.70;1.58;;;;;;;;;;6071079;23;20018;-60
2022/12/24 01:47:09;;;;;;;12.37;1.20;;;;;;;;;;6061490;23;20038;-60
2022/12/24 01:49:38;;;;;;;17.48;1.80;;;;;;;;;;6070744;23;20061;-60
2022/12/24 01:52:08;;;;;;;10.32;1.08;;;;;;;;;;6062799;23;20097;-59
2022/12/24 01:54:40;;;;;;;12.15;1.35;;;;;;;;;;6065380;23;20069;-60
2022/12/24 01:57:10;;;;;;;10.20;1.23;;;;;;;;;;6067642;23;20022;-59
2022/12/24 01:59:39;;;;;;;9.27;1.27;;;;;;;;;;6057953;23;20045;-60
2022/12/24 02:02:07;;;;;;;11.73;1.20;;;;;;;;;;6070927;23;20038;-59
2022/12/24 02:04:37;;;;;;;16.00;1.38;;;;;;;;;;6063163;23;20037;-60
2022/12/24 02:07:05;;;;;;;11.65;1.10;;;;;;;;;;6070209;23;20045;-59
2022/12/24 02:09:33;;;;;;;12.07;0.93;;;;;;;;;;6061736;23;20069;-60
2022/12/24 02:12:01;;;;;;;14.80;1.97;;;;;;;;;;6066798;23;20062;-60
2022/12/24 02:14:31;;;;;;;13.10;1.50;;;;;;;;;;6072598;23;20025;-60
2022/12/24 02:17:10;;;;;;;11.98;1.30;;;;;;;;;;6073431;23;20402;-60
2022/12/24 02:19:51;;;;;;;14.27;1.88;;;;;;;;;;6071665;23;20383;-60
2022/12/24 02:22:24;;;;;;;11.75;1.65;;;;;;;;;;6061027;23;20034;-60
2022/12/24 02:25:04;;;;;;;11.60;1.97;;;;;;;;;;6072651;23;20339;-60
2022/12/24 02:27:34;;;;;;;14.70;1.30;;;;;;;;;;6073110;23;20086;-60
2022/12/24 02:30:12;;;;;;;9.20;1.13;;;;;;;;;;6061601;23;20022;-60
2022/12/24 02:32:46;;;;;;;13.75;1.10;;;;;;;;;;6044511;23;20457;-60
2022/12/24 02:35:16;;;;;;;13.60;1.17;;;;;;;;;;6053514;23;20018;-59
2022/12/24 02:37:47;;;;;;;10.13;0.83;;;;;;;;;;6070580;23;20097;-60
2022/12/24 02:40:16;;;;;;;14.10;0.88;;;;;;;;;;6038386;23;20060;-60
2022/12/24 02:42:46;;;;;;;12.05;1.00;;;;;;;;;;6068291;23;20097;-60
2022/12/24 02:45:16;;;;;;;12.68;1.40;;;;;;;;;;6072834;23;20125;-60
2022/12/24 02:47:45;;;;;;;14.93;2.00;;;;;;;;;;6065274;23;20501;-58
2022/12/24 02:50:13;;;;;;;18.90;1.97;;;;;;;;;;6076417;23;20030;-59
2022/12/24 02:52:42;;;;;;;9.80;1.33;;;;;;;;;;6065500;23;20054;-60
2022/12/24 02:55:12;;;;;;;16.73;2.05;;;;;;;;;;6068437;23;20093;-59
2022/12/24 02:57:53;;;;;;;23.80;1.75;;;;;;;;;;6064678;23;20018;-59
2022/12/24 03:00:23;;;;;;;7.22;1.10;;;;;;;;;;6068498;23;20049;-60
2022/12/24 03:03:00;;;;;;;17.30;1.80;;;;;;;;;;6068234;23;20023;-59
2022/12/24 03:05:29;;;;;;;12.25;1.45;;;;;;;;;;6061721;23;20635;-59
2022/12/24 03:08:01;;;;;;;21.65;2.20;;;;;;;;;;6072830;23;20131;-59
2022/12/24 03:10:32;;;;;;;11.52;1.45;;;;;;;;;;6071195;23;20085;-60
2022/12/24 03:13:02;;;;;;;9.60;1.48;;;;;;;;;;6064931;23;20081;-60
2022/12/24 03:15:32;;;;;;;14.53;2.07;;;;;;;;;;6076638;23;20126;-59
2022/12/24 03:18:00;;;;;;;20.63;1.60;;;;;;;;;;6071884;23;20517;-60
2022/12/24 03:20:30;;;;;;;12.68;1.67;;;;;;;;;;6063992;23;20037;-59
2022/12/24 03:23:00;;;;;;;10.38;1.45;;;;;;;;;;6032528;23;20018;-59
2022/12/24 03:25:27;;;;;;;12.32;1.40;;;;;;;;;;6069409;23;20764;-60
2022/12/24 03:27:56;;;;;;;14.00;1.70;;;;;;;;;;6072130;23;20074;-60
2022/12/24 03:30:24;;;;;;;14.68;1.48;;;;;;;;;;6070034;23;20074;-60
2022/12/24 03:32:53;;;;;;;14.25;1.30;;;;;;;;;;6063218;23;20015;-60
2022/12/24 03:35:20;;;;;;;11.18;1.45;;;;;;;;;;6056022;23;20484;-60
2022/12/24 03:37:48;;;;;;;11.98;1.48;;;;;;;;;;6045556;23;20026;-60
2022/12/24 03:40:16;;;;;;;13.87;1.50;;;;;;;;;;6068130;23;20019;-59
2022/12/24 03:42:44;;;;;;;9.68;1.65;;;;;;;;;;6071900;23;20018;-60
2022/12/24 03:45:12;;;;;;;16.38;1.65;;;;;;;;;;6070668;23;20021;-59
2022/12/24 03:47:39;;;;;;;12.40;0.93;;;;;;;;;;6047001;23;20014;-60
2022/12/24 03:50:08;;;;;;;10.73;1.85;;;;;;;;;;6043493;23;20046;-59
2022/12/24 03:52:37;;;;;;;13.50;1.70;;;;;;;;;;6069878;23;20046;-59
2022/12/24 03:55:05;;;;;;;13.90;1.42;;;;;;;;;;6062872;23;20064;-59
2022/12/24 03:57:33;;;;;;;13.23;1.52;;;;;;;;;;6068040;23;20018;-60
2022/12/24 04:00:00;;;;;;;18.48;1.52;;;;;;;;;;6066763;23;20057;-59
2022/12/24 04:02:28;;;;;;;10.85;1.85;;;;;;;;;;6073574;23;20066;-60
2022/12/24 04:04:56;;;;;;;13.60;1.53;;;;;;;;;;6069302;23;20289;-59
2022/12/24 04:07:26;;;;;;;14.23;1.23;;;;;;;;;;6074079;23;20018;-60
2022/12/24 04:09:53;;;;;;;13.60;1.67;;;;;;;;;;6066111;23;20369;-59
2022/12/24 04:12:21;;;;;;;17.65;1.20;;;;;;;;;;6070213;23;20466;-60
2022/12/24 04:14:49;;;;;;;17.73;1.55;;;;;;;;;;6066497;23;20097;-59
2022/12/24 04:17:17;;;;;;;12.53;2.23;;;;;;;;;;6071727;23;20446;-59
2022/12/24 04:19:44;;;;;;;18.58;1.55;;;;;;;;;;6066906;23;20085;-58
2022/12/24 04:22:12;;;;;;;13.15;1.77;;;;;;;;;;6068409;23;20089;-59
2022/12/24 04:24:41;;;;;;;9.68;1.25;;;;;;;;;;6072467;23;20484;-60
2022/12/24 04:27:09;;;;;;;13.48;1.52;;;;;;;;;;6063137;23;20058;-58
2022/12/24 04:29:36;;;;;;;14.37;1.40;;;;;;;;;;6069189;23;20097;-60
2022/12/24 04:32:04;;;;;;;21.25;1.30;;;;;;;;;;6069033;23;20497;-60
2022/12/24 04:34:32;;;;;;;19.88;1.83;;;;;;;;;;6064538;23;20029;-60
2022/12/24 04:36:59;;;;;;;14.88;1.40;;;;;;;;;;6071889;23;20014;-59
2022/12/24 04:39:27;;;;;;;14.35;1.75;;;;;;;;;;6063945;23;20019;-59
2022/12/24 04:41:57;;;;;;;13.17;0.97;;;;;;;;;;6045256;23;20022;-59
2022/12/24 04:44:25;;;;;;;11.50;1.23;;;;;;;;;;6071869;23;20069;-59
2022/12/24 04:46:52;;;;;;;17.52;1.60;;;;;;;;;;6070715;23;20018;-59
2022/12/24 04:49:20;;;;;;;15.73;1.55;;;;;;;;;;6046807;23;20046;-60
2022/12/24 04:51:48;;;;;;;12.43;1.92;;;;;;;;;;6066553;23;20049;-60
2022/12/24 04:54:15;;;;;;;19.67;1.40;;;;;;;;;;6068041;23;20020;-60
2022/12/24 04:56:43;;;;;;;15.68;1.48;;;;;;;;;;6069128;23;20025;-61
2022/12/24 04:59:12;;;;;;;19.85;1.67;;;;;;;;;;6069110;23;20014;-60
2022/12/24 05:01:40;;;;;;;20.48;1.92;;;;;;;;;;6070908;23;20046;-61
2022/12/24 05:04:10;;;;;;;18.17;1.38;;;;;;;;;;6065820;23;20025;-60
2022/12/24 05:06:37;;;;;;;12.77;1.53;;;;;;;;;;6068773;23;20097;-60
2022/12/24 05:09:05;;;;;;;18.25;2.10;;;;;;;;;;6073272;23;20453;-60
2022/12/24 05:11:32;;;;;;;21.08;1.98;;;;;;;;;;6065705;23;20066;-60
2022/12/24 05:14:00;;;;;;;16.40;1.77;;;;;;;;;;6071622;23;20098;-60
2022/12/24 05:16:29;;;;;;;12.18;0.82;;;;;;;;;;6065217;23;20105;-60
2022/12/24 05:18:57;;;;;;;20.63;1.63;;;;;;;;;;6041740;23;20019;-60
2022/12/24 05:21:25;;;;;;;16.02;1.40;;;;;;;;;;6067443;23;20052;-59
2022/12/24 05:26:40;;;;;;;19.10;1.85;;;;;;;;;;6073853;23;20037;-60
2022/12/24 05:29:10;;;;;;;12.95;2.60;;;;;;;;;;6059165;23;20014;-60
2022/12/24 05:31:43;;;;;;;14.60;1.80;;;;;;;;;;6068641;23;20018;-61
2022/12/24 05:34:12;;;;;;;18.15;1.40;;;;;;;;;;6064856;23;20018;-60
2022/12/24 05:36:40;;;;;;;17.13;2.03;;;;;;;;;;6074406;23;20019;-60
2022/12/24 05:39:08;;;;;;;15.10;1.50;;;;;;;;;;6065173;23;20423;-60
2022/12/24 05:41:42;;;;;;;16.05;1.05;;;;;;;;;;6070750;23;20022;-60
2022/12/24 05:44:10;;;;;;;15.10;1.73;;;;;;;;;;6063130;23;20453;-61
2022/12/24 05:46:37;;;;;;;20.05;2.35;;;;;;;;;;6072643;23;20025;-60
2022/12/24 05:49:06;;;;;;;16.52;1.50;;;;;;;;;;6058262;23;20069;-59
2022/12/24 05:51:34;;;;;;;19.13;1.88;;;;;;;;;;6072673;23;20050;-61
2022/12/24 05:54:02;;;;;;;13.75;1.40;;;;;;;;;;6059852;23;20964;-60
2022/12/24 05:56:29;;;;;;;19.50;1.93;;;;;;;;;;6073729;23;20033;-60
2022/12/24 05:58:58;;;;;;;15.18;1.42;;;;;;;;;;6065152;23;20015;-58
2022/12/24 06:01:26;;;;;;;21.33;2.33;;;;;;;;;;6073752;23;20038;-60
2022/12/24 06:03:54;;;;;;;20.80;1.60;;;;;;;;;;6063850;23;20485;-60
2022/12/24 06:06:25;;;;;;;16.38;1.73;;;;;;;;;;6070513;23;20046;-60
2022/12/24 06:08:53;;;;;;;12.63;1.40;;;;;;;;;;6063603;23;20280;-60
2022/12/24 06:11:22;;;;;;;12.95;1.30;;;;;;;;;;6072634;23;20305;-60
2022/12/24 06:13:49;;;;;;;15.75;1.67;;;;;;;;;;6067370;23;20474;-59
2022/12/24 06:16:18;;;;;;;21.35;1.92;;;;;;;;;;6070799;23;20519;-60
2022/12/24 06:18:46;;;;;;;13.75;1.60;;;;;;;;;;6066454;23;20496;-59
2022/12/24 06:21:14;;;;;;;12.03;1.83;;;;;;;;;;6075016;23;20450;-60
2022/12/24 06:23:44;;;;;;;13.55;1.33;;;;;;;;;;6068971;23;20066;-60
2022/12/24 06:26:13;;;;;;;17.80;1.77;;;;;;;;;;6069953;23;20018;-60
2022/12/24 06:28:40;;;;;;;19.73;1.75;;;;;;;;;;6072828;23;20018;-60
2022/12/24 06:31:11;;;;;;;13.10;1.48;;;;;;;;;;6070121;23;20311;-60
2022/12/24 06:33:39;;;;;;;17.57;1.37;;;;;;;;;;6072772;23;20105;-60
2022/12/24 06:36:07;;;;;;;14.02;1.60;;;;;;;;;;6035782;23;20465;-59
2022/12/24 06:38:47;;;;;;;14.23;1.15;;;;;;;;;;6071076;23;20400;-60
2022/12/24 06:41:15;;;;;;;14.38;1.73;;;;;;;;;;6070588;23;20074;-60
2022/12/24 06:43:43;;;;;;;12.95;1.45;;;;;;;;;;6042726;23;20022;-60
2022/12/24 06:46:11;;;;;;;16.03;1.50;;;;;;;;;;6070197;23;20014;-60
2022/12/24 06:48:39;;;;;;;13.90;1.67;;;;;;;;;;6074998;23;20022;-60
2022/12/24 06:51:06;;;;;;;12.13;1.10;;;;;;;;;;6065967;23;20362;-60
2022/12/24 06:53:37;;;;;;;18.08;1.30;;;;;;;;;;6071897;23;20153;-60
2022/12/24 06:56:07;;;;;;;14.50;1.63;;;;;;;;;;6049880;23;20018;-56
2022/12/24 06:58:35;;;;;;;17.60;1.47;;;;;;;;;;6073648;23;20442;-59
2022/12/24 07:01:03;;;;;;;17.95;1.45;;;;;;;;;;6066831;23;20021;-59
2022/12/24 07:03:31;;;;;;;13.73;1.50;;;;;;;;;;6073165;23;20504;-60
2022/12/24 07:05:59;;;;;;;19.10;1.70;;;;;;;;;;6067805;23;20018;-59
2022/12/24 07:08:27;;;;;;;11.38;1.05;;;;;;;;;;6072248;23;20014;-59
2022/12/24 07:11:01;;;;;;;12.33;1.90;;;;;;;;;;6072781;23;20018;-59
2022/12/24 07:13:33;;;;;;;20.40;1.60;;;;;;;;;;6067042;23;20077;-59
2022/12/24 07:16:01;;;;;;;13.15;1.33;;;;;;;;;;6073721;23;20033;-59
2022/12/24 07:18:30;;;;;;;15.60;1.08;;;;;;;;;;6066533;23;20679;-59
2022/12/24 07:20:58;;;;;;;13.23;1.13;;;;;;;;;;6074503;23;20041;-59
2022/12/24 07:23:25;;;;;;;14.57;1.20;;;;;;;;;;6064021;23;20693;-59
2022/12/24 07:25:53;;;;;;;11.10;1.05;;;;;;;;;;6073350;23;20030;-59
2022/12/24 07:28:21;;;;;;;12.25;1.27;;;;;;;;;;6065530;23;20015;-59
2022/12/24 07:30:56;;;;;;;12.18;2.13;;;;;;;;;;6067150;23;20477;-59
2022/12/24 07:33:23;;;;;;;14.25;1.27;;;;;;;;;;6070802;23;20019;-59
2022/12/24 07:35:57;;;;;;;12.97;0.90;;;;;;;;;;6064937;23;20457;-59
2022/12/24 07:38:25;;;;;;;14.88;1.45;;;;;;;;;;6075483;23;20045;-58
2022/12/24 07:40:53;;;;;;;16.50;1.02;;;;;;;;;;6065929;23;20516;-59
2022/12/24 07:43:20;;;;;;;16.58;1.63;;;;;;;;;;6073617;23;20049;-59
2022/12/24 07:45:48;;;;;;;16.40;1.60;;;;;;;;;;6065188;23;20015;-59
2022/12/24 07:48:17;;;;;;;13.80;1.57;;;;;;;;;;6072208;23;20042;-59
2022/12/24 07:50:45;;;;;;;18.15;1.73;;;;;;;;;;6064469;23;20884;-59
2022/12/24 07:53:12;;;;;;;16.45;1.48;;;;;;;;;;6047208;23;20461;-59
2022/12/24 07:55:41;;;;;;;14.65;1.48;;;;;;;;;;6070084;23;20017;-59
2022/12/24 07:58:09;;;;;;;11.70;1.25;;;;;;;;;;6070106;23;20100;-59
2022/12/24 08:00:38;;;;;;;13.40;2.40;;;;;;;;;;6067872;23;20015;-59
2022/12/24 08:03:05;;;;;;;11.07;1.45;;;;;;;;;;6074421;23;20117;-59
2022/12/24 08:05:35;;;;;;;13.18;2.05;;;;;;;;;;6064999;23;20113;-59
2022/12/24 08:08:03;;;;;;;11.82;0.95;;;;;;;;;;6072151;23;20123;-59
2022/12/24 08:10:30;;;;;;;15.45;1.50;;;;;;;;;;6066721;23;20041;-59
2022/12/24 08:12:58;;;;;;;14.30;1.23;;;;;;;;;;6045996;23;20407;-59
2022/12/24 08:15:26;;;;;;;15.27;1.77;;;;;;;;;;6065146;23;20349;-58
2022/12/24 08:17:53;;;;;;;20.27;1.60;;;;;;;;;;6073465;23;20018;-59
2022/12/24 08:20:21;;;;;;;14.20;1.70;;;;;;;;;;6065491;23;20045;-59
2022/12/24 08:22:50;;;;;;;9.38;1.10;;;;;;;;;;6071508;23;20473;-59
2022/12/24 08:25:18;;;;;;;20.13;1.60;;;;;;;;;;6064190;23;20018;-59
2022/12/24 08:27:47;;;;;;;18.10;2.00;;;;;;;;;;6068150;23;20018;-59
2022/12/24 08:30:15;;;;;;;13.40;1.50;;;;;;;;;;6049302;23;20074;-59
2022/12/24 08:32:48;;;;;;;17.42;1.42;;;;;;;;;;6064220;23;20349;-59
2022/12/24 08:35:15;;;;;;;14.00;1.30;;;;;;;;;;6072171;23;20081;-59
2022/12/24 08:37:43;;;;;;;12.07;1.40;;;;;;;;;;6065879;23;20101;-59
2022/12/24 08:40:12;;;;;;;16.08;1.52;;;;;;;;;;6069968;23;20025;-59
2022/12/24 08:42:40;;;;;;;14.18;1.38;;;;;;;;;;6059940;23;20057;-59
2022/12/24 08:45:08;;;;;;;17.58;1.23;;;;;;;;;;6072423;23;20093;-59
2022/12/24 08:47:36;;;;;;;10.38;0.88;;;;;;;;;;6054721;23;20461;-59
2022/12/24 08:50:04;;;;;;;14.37;1.43;;;;;;;;;;6073075;23;20350;-59
2022/12/24 08:52:32;;;;;;;14.82;1.17;;;;;;;;;;6065651;23;20026;-58
2022/12/24 08:55:00;;;;;;;11.88;0.80;;;;;;;;;;6068356;23;20094;-59
2022/12/24 08:57:29;;;;;;;9.30;1.02;;;;;;;;;;6067923;23;20018;-58
2022/12/24 08:59:56;;;;;;;12.10;1.17;;;;;;;;;;6070263;23;20466;-59
2022/12/24 09:02:24;;;;;;;12.70;1.30;;;;;;;;;;6065089;23;20018;-59
2022/12/24 09:04:52;;;;;;;13.20;2.25;;;;;;;;;;6074717;23;20041;-58
2022/12/24 09:07:20;;;;;;;20.05;1.75;;;;;;;;;;6064240;23;20053;-58
2022/12/24 09:09:47;;;;;;;11.65;1.10;;;;;;;;;;6072366;23;20101;-58
2022/12/24 09:12:15;;;;;;;9.90;1.17;;;;;;;;;;6064652;23;20101;-59
2022/12/24 09:14:44;;;;;;;13.53;1.37;;;;;;;;;;6072245;23;20025;-59
2022/12/24 09:17:11;;;;;;;16.58;1.15;;;;;;;;;;6065904;23;20034;-59
2022/12/24 09:19:39;;;;;;;10.27;1.27;;;;;;;;;;6070483;23;20019;-59
2022/12/24 09:22:07;;;;;;;14.25;1.25;;;;;;;;;;6066167;23;20042;-59
2022/12/24 09:24:38;;;;;;;18.63;2.53;;;;;;;;;;6068080;23;20014;-59
2022/12/24 09:27:06;;;;;;;17.37;1.53;;;;;;;;;;6073929;23;20018;-58
2022/12/24 09:29:34;;;;;;;19.98;1.13;;;;;;;;;;6066578;23;20050;-58
2022/12/24 09:32:06;;;;;;;14.88;1.10;;;;;;;;;;6071685;23;20026;-55
2022/12/24 09:34:34;;;;;;;23.00;1.65;;;;;;;;;;6052503;23;20106;-59
2022/12/24 09:37:02;;;;;;;15.50;1.67;;;;;;;;;;6072611;23;20042;-59
2022/12/24 09:39:29;;;;;;;10.30;1.13;;;;;;;;;;6064482;23;20286;-59
2022/12/24 09:42:03;;;;;;;14.90;0.95;;;;;;;;;;6072954;23;20151;-59
2022/12/24 09:44:34;;;;;;;14.40;1.52;;;;;;;;;;6071681;23;20439;-59
2022/12/24 09:47:08;;;;;;;12.80;1.15;;;;;;;;;;6070384;23;20411;-59
2022/12/24 09:49:42;;;;;;;13.68;1.30;;;;;;;;;;6068736;23;20413;-59
2022/12/24 09:52:10;;;;;;;14.50;1.20;;;;;;;;;;6065674;23;20050;-59
2022/12/24 09:54:40;;;;;;;11.35;1.13;;;;;;;;;;6068797;23;20073;-59
2022/12/24 09:57:20;;;;;;;17.00;1.50;;;;;;;;;;6076105;23;20018;-59
2022/12/24 09:59:49;;;;;;;10.07;1.05;;;;;;;;;;6071304;23;20021;-59
2022/12/24 10:02:18;;;;;;;16.83;1.33;;;;;;;;;;6065823;23;20014;-59
2022/12/24 10:04:48;;;;;;;20.20;1.77;;;;;;;;;;6072210;23;20450;-59
2022/12/24 10:07:24;;;;;;;15.38;1.75;;;;;;;;;;6061986;23;20384;-60
2022/12/24 10:09:59;;;;;;;13.82;1.90;;;;;;;;;;6075001;23;20014;-59
2022/12/24 10:12:32;;;;;;;16.75;1.88;;;;;;;;;;6039457;23;20054;-59
2022/12/24 10:15:03;;;;;;;15.05;1.70;;;;;;;;;;6064512;23;20261;-59
2022/12/24 10:17:38;;;;;;;14.63;1.97;;;;;;;;;;6072070;23;20085;-59
2022/12/24 10:20:20;;;;;;;20.75;1.85;;;;;;;;;;6038496;23;20591;-58
2022/12/24 10:22:51;;;;;;;14.05;1.85;;;;;;;;;;6073836;23;20516;-58
2022/12/24 10:25:21;;;;;;;17.67;2.15;;;;;;;;;;6061143;23;20401;-59
2022/12/24 10:27:49;;;;;;;14.98;1.75;;;;;;;;;;6064413;23;20098;-59
2022/12/24 10:30:18;;;;;;;14.60;2.40;;;;;;;;;;6050697;23;20320;-59
2022/12/24 10:32:47;;;;;;;19.60;1.45;;;;;;;;;;6062563;23;20022;-59
2022/12/24 10:35:22;;;;;;;13.07;2.15;;;;;;;;;;6070824;23;20101;-59
2022/12/24 10:37:51;;;;;;;12.95;1.10;;;;;;;;;;6065029;23;20018;-59
2022/12/24 10:40:25;;;;;;;22.42;1.92;;;;;;;;;;6073522;23;20022;-59
2022/12/24 10:42:53;;;;;;;20.43;1.87;;;;;;;;;;6072583;23;20029;-59
2022/12/24 10:45:22;;;;;;;13.93;2.13;;;;;;;;;;6071671;23;20446;-59
2022/12/24 10:47:52;;;;;;;14.52;1.73;;;;;;;;;;6063269;23;20042;-59
2022/12/24 10:50:28;;;;;;;18.95;1.88;;;;;;;;;;6070289;23;20018;-59
2022/12/24 10:53:01;;;;;;;21.10;1.90;;;;;;;;;;6069570;23;20027;-59
2022/12/24 10:55:28;;;;;;;17.90;1.50;;;;;;;;;;6070606;23;20257;-59
2022/12/24 10:57:58;;;;;;;14.82;1.33;;;;;;;;;;6065357;23;20093;-59
2022/12/24 11:00:25;;;;;;;15.23;1.85;;;;;;;;;;6075557;23;20018;-59
2022/12/24 11:03:06;;;;;;;16.23;1.92;;;;;;;;;;6075395;23;20018;-59
2022/12/24 11:05:36;;;;;;;20.70;1.90;;;;;;;;;;6065264;23;20025;-59
2022/12/24 11:08:05;;;;;;;22.43;1.80;;;;;;;;;;6072083;23;20053;-59
2022/12/24 11:10:35;;;;;;;21.27;1.67;;;;;;;;;;6065203;23;20449;-59
2022/12/24 11:13:03;;;;;;;16.88;1.77;;;;;;;;;;6073229;23;20046;-59
2022/12/24 11:15:51;;;;;;;21.30;3.03;;;;;;;;;;6073963;23;20022;-59
2022/12/24 11:18:19;;;;;;;22.27;2.40;;;;;;;;;;6064196;23;20034;-59
2022/12/24 11:20:51;;;;;;;9.60;1.50;;;;;;;;;;6073799;23;20101;-58
2022/12/24 11:23:19;;;;;;;18.65;1.77;;;;;;;;;;6066209;23;20558;-59
2022/12/24 11:25:48;;;;;;;19.85;1.90;;;;;;;;;;6070386;23;20029;-59
2022/12/24 11:28:20;;;;;;;15.38;1.88;;;;;;;;;;6064857;23;20026;-59
2022/12/24 11:30:55;;;;;;;20.00;2.33;;;;;;;;;;6068329;23;20042;-58
2022/12/24 11:33:23;;;;;;;14.33;2.57;;;;;;;;;;6073926;23;20446;-59
2022/12/24 11:35:57;;;;;;;21.20;2.00;;;;;;;;;;6066004;23;20779;-59
2022/12/24 11:38:26;;;;;;;13.70;1.95;;;;;;;;;;6064873;23;20029;-59
2022/12/24 11:40:59;;;;;;;16.35;2.08;;;;;;;;;;6064986;23;20501;-59
2022/12/24 11:43:43;;;;;;;19.27;2.10;;;;;;;;;;6071506;23;20046;-59
2022/12/24 11:46:12;;;;;;;16.23;2.17;;;;;;;;;;6065224;23;20029;-59
2022/12/24 11:48:40;;;;;;;15.73;2.38;;;;;;;;;;6073152;23;20448;-60
2022/12/24 11:51:18;;;;;;;15.77;1.80;;;;;;;;;;6064688;23;20053;-59
2022/12/24 11:53:49;;;;;;;23.30;1.80;;;;;;;;;;6065927;23;20424;-59
2022/12/24 11:56:24;;;;;;;24.67;2.72;;;;;;;;;;6074514;23;20085;-60
2022/12/24 11:58:57;;;;;;;16.80;1.83;;;;;;;;;;6074254;23;20153;-59
2022/12/24 12:01:29;;;;;;;21.67;2.40;;;;;;;;;;6073075;23;20050;-59
2022/12/24 12:03:59;;;;;;;20.38;2.45;;;;;;;;;;6067547;23;20022;-59
2022/12/24 12:06:32;;;;;;;25.02;2.38;;;;;;;;;;6072134;23;20476;-57
2022/12/24 12:09:02;;;;;;;20.38;2.30;;;;;;;;;;6067066;23;20097;-58
2022/12/24 12:11:30;;;;;;;23.17;2.43;;;;;;;;;;6072200;23;20015;-59
2022/12/24 12:13:59;;;;;;;16.88;1.90;;;;;;;;;;6063884;23;20105;-59
2022/12/24 12:16:29;;;;;;;26.25;2.40;;;;;;;;;;6072255;23;20011;-60
2022/12/24 12:18:59;;;;;;;19.40;2.15;;;;;;;;;;6065079;23;20073;-60
2022/12/24 12:21:32;;;;;;;16.70;1.88;;;;;;;;;;6065952;23;20054;-61
2022/12/24 12:24:03;;;;;;;14.27;1.80;;;;;;;;;;6073206;23;20069;-60
2022/12/24 12:26:32;;;;;;;16.98;2.05;;;;;;;;;;6065190;23;20205;-61
2022/12/24 12:29:01;;;;;;;20.08;1.92;;;;;;;;;;6070402;23;20074;-60
2022/12/24 12:31:32;;;;;;;15.13;1.27;;;;;;;;;;6039238;23;20052;-60
2022/12/24 12:34:03;;;;;;;14.25;1.92;;;;;;;;;;6065306;23;20026;-60
2022/12/24 12:36:36;;;;;;;20.03;2.07;;;;;;;;;;6075278;23;20049;-60
2022/12/24 12:39:04;;;;;;;15.65;1.52;;;;;;;;;;6064768;23;20097;-60
2022/12/24 12:41:50;;;;;;;22.20;3.45;;;;;;;;;;6073293;23;20446;-60
2022/12/24 12:44:35;;;;;;;20.00;1.80;;;;;;;;;;6064439;23;20058;-60
2022/12/24 12:47:18;;;;;;;12.32;1.67;;;;;;;;;;6070589;23;20022;-61
2022/12/24 12:49:49;;;;;;;15.43;2.10;;;;;;;;;;6071466;23;20018;-61
2022/12/24 12:52:23;;;;;;;17.85;2.38;;;;;;;;;;6066032;23;20022;-61
2022/12/24 12:54:58;;;;;;;21.08;2.88;;;;;;;;;;6070922;23;20093;-60
2022/12/24 12:57:28;;;;;;;23.75;2.47;;;;;;;;;;6067626;23;20069;-60
2022/12/24 12:59:58;;;;;;;15.30;1.80;;;;;;;;;;6075358;23;20029;-60
2022/12/24 13:02:34;;;;;;;23.67;2.67;;;;;;;;;;6038784;23;20567;-59
2022/12/24 13:05:26;;;;;;;21.27;1.98;;;;;;;;;;6070183;23;20019;-61
2022/12/24 13:08:11;;;;;;;29.80;2.58;;;;;;;;;;6054720;23;20018;-61
2022/12/24 13:10:54;;;;;;;21.95;2.40;;;;;;;;;;6064734;23;20042;-60
2022/12/24 13:13:39;;;;;;;26.15;2.10;;;;;;;;;;6069183;23;20554;-59
2022/12/24 13:16:18;;;;;;;20.17;1.90;;;;;;;;;;6071642;23;20097;-60
2022/12/24 13:18:53;;;;;;;18.58;2.22;;;;;;;;;;6063656;23;20449;-59
2022/12/24 13:21:25;;;;;;;28.42;2.33;;;;;;;;;;6072377;23;20021;-60
2022/12/24 13:24:04;;;;;;;25.70;2.78;;;;;;;;;;6073910;23;20022;-61
2022/12/24 13:26:33;;;;;;;28.35;1.98;;;;;;;;;;6064685;23;20240;-60
2022/12/24 13:29:20;;;;;;;21.53;1.90;;;;;;;;;;6072069;23;20014;-60
2022/12/24 13:31:47;;;;;;;23.80;2.72;;;;;;;;;;6070258;23;20465;-59
2022/12/24 13:34:33;;;;;;;20.67;2.20;;;;;;;;;;6063554;23;20353;-60
2022/12/24 13:37:03;;;;;;;18.92;2.33;;;;;;;;;;6070849;23;20049;-60
2022/12/24 13:39:45;;;;;;;34.20;2.85;;;;;;;;;;6063619;23;20022;-60
2022/12/24 13:42:35;;;;;;;19.20;2.10;;;;;;;;;;6056900;23;20532;-60
2022/12/24 13:45:17;;;;;;;22.88;3.25;;;;;;;;;;6073513;23;20026;-60
2022/12/24 13:47:45;;;;;;;26.38;2.92;;;;;;;;;;6060896;23;20058;-60
2022/12/24 13:50:30;;;;;;;22.88;2.50;;;;;;;;;;6070834;23;20030;-60
2022/12/24 13:52:58;;;;;;;23.58;3.50;;;;;;;;;;6070248;23;20014;-60
2022/12/24 13:55:26;;;;;;;26.60;2.90;;;;;;;;;;6068048;23;20109;-60
2022/12/24 13:57:57;;;;;;;24.55;2.53;;;;;;;;;;6069411;23;20316;-60
2022/12/24 14:00:27;;;;;;;21.15;3.10;;;;;;;;;;6072758;23;20022;-60
2022/12/24 14:03:01;;;;;;;30.60;3.53;;;;;;;;;;6071938;23;20018;-60
2022/12/24 14:05:31;;;;;;;24.20;3.22;;;;;;;;;;6065199;23;20478;-60
2022/12/24 14:08:00;;;;;;;31.43;3.20;;;;;;;;;;6073163;23;20015;-60
2022/12/24 14:10:30;;;;;;;26.55;3.50;;;;;;;;;;6065759;23;21047;-60
2022/12/24 14:12:59;;;;;;;29.98;3.30;;;;;;;;;;6071358;23;20099;-60
2022/12/24 14:15:45;;;;;;;24.92;2.60;;;;;;;;;;6063166;23;20019;-59
2022/12/24 14:18:17;;;;;;;21.27;3.03;;;;;;;;;;6065509;23;20018;-60
2022/12/24 14:20:48;;;;;;;28.03;3.07;;;;;;;;;;6059687;23;20101;-60
2022/12/24 14:23:20;;;;;;;20.45;2.90;;;;;;;;;;6038140;23;20157;-60
2022/12/24 14:25:48;;;;;;;20.80;3.00;;;;;;;;;;6074431;23;20014;-59
2022/12/24 14:28:20;;;;;;;26.73;3.13;;;;;;;;;;6062670;23;20014;-60
2022/12/24 14:30:59;;;;;;;18.95;2.50;;;;;;;;;;6068288;23;20470;-60
2022/12/24 14:33:30;;;;;;;16.93;2.33;;;;;;;;;;6064172;23;20124;-59
2022/12/24 14:35:58;;;;;;;24.77;2.97;;;;;;;;;;6067230;23;20101;-60
2022/12/24 14:38:26;;;;;;;21.15;2.75;;;;;;;;;;6072089;23;20018;-58
2022/12/24 14:40:57;;;;;;;21.73;2.67;;;;;;;;;;6066073;23;20015;-60
2022/12/24 14:43:28;;;;;;;24.20;2.60;;;;;;;;;;6072126;23;20089;-60
2022/12/24 14:45:59;;;;;;;28.80;3.17;;;;;;;;;;6065001;23;20403;-60
2022/12/24 14:48:32;;;;;;;28.45;2.85;;;;;;;;;;6073723;23;20022;-59
2022/12/24 14:51:09;;;;;;;28.35;2.55;;;;;;;;;;6065166;23;20399;-60
2022/12/24 14:53:56;;;;;;;26.95;2.67;;;;;;;;;;6066386;23;20021;-60
2022/12/24 14:56:24;;;;;;;24.30;2.95;;;;;;;;;;6074992;23;20030;-60